Time;durP1;ratioP1;P1;durP2;ratioP2;P2;SDS_P1;SDS_P2;PMS_P1;PMS_P2;Temp;Humidity;BMP_temperature;BMP_pressure;BME280_temperature;BME280_humidity;BME280_pressure;Samples;Min_cycle;Max_cycle;Signal;HPM_P1;HPM_P2
2023/12/17 00:01:20;;;;;;;12.75;7.05;;;10.70;99.90;;;;;;6322430;28;20051;-86
2023/12/17 00:04:22;;;;;;;12.32;6.30;;;10.60;99.90;;;;;;6320349;28;20063;-85
2023/12/17 00:07:24;;;;;;;9.85;6.00;;;10.60;99.90;;;;;;6296308;28;20059;-85
2023/12/17 00:10:26;;;;;;;11.60;5.07;;;10.60;99.90;;;;;;6322644;28;20059;-87
2023/12/17 00:13:27;;;;;;;10.25;4.82;;;10.60;99.90;;;;;;6310860;28;20439;-86
2023/12/17 00:16:29;;;;;;;8.52;4.85;;;10.60;99.90;;;;;;6295458;28;20083;-85
2023/12/17 00:19:31;;;;;;;6.90;4.00;;;10.60;99.90;;;;;;6319824;28;20044;-84
2023/12/17 00:22:33;;;;;;;9.05;4.13;;;10.60;99.90;;;;;;6320133;28;20124;-87
2023/12/17 00:25:36;;;;;;;8.23;4.20;;;10.50;99.90;;;;;;6320250;28;20411;-85
2023/12/17 00:28:38;;;;;;;7.05;4.20;;;10.50;99.90;;;;;;6307619;28;20055;-87
2023/12/17 00:31:40;;;;;;;10.05;4.40;;;10.50;99.90;;;;;;6321655;28;20059;-85
2023/12/17 00:34:41;;;;;;;10.68;4.32;;;10.50;99.90;;;;;;6320022;28;20514;-84
2023/12/17 00:37:43;;;;;;;9.95;4.65;;;10.50;99.90;;;;;;6297592;28;20051;-83
2023/12/17 00:40:45;;;;;;;11.82;4.00;;;10.40;99.90;;;;;;6319296;28;20062;-84
2023/12/17 00:43:47;;;;;;;11.25;4.22;;;10.50;99.90;;;;;;6317383;28;20048;-85
2023/12/17 00:46:48;;;;;;;12.85;4.85;;;10.40;99.90;;;;;;6295643;28;20079;-84
2023/12/17 00:49:50;;;;;;;8.13;4.20;;;10.40;99.90;;;;;;6320101;28;20044;-86
2023/12/17 00:52:52;;;;;;;9.88;4.00;;;10.40;99.90;;;;;;6297003;28;20088;-85
2023/12/17 00:55:53;;;;;;;12.98;4.47;;;10.40;99.90;;;;;;6319625;28;20056;-86
2023/12/17 00:58:55;;;;;;;8.90;3.97;;;10.40;99.90;;;;;;6304927;28;20079;-85
2023/12/17 01:01:56;;;;;;;10.73;4.10;;;10.40;99.90;;;;;;6294510;28;20051;-85
2023/12/17 01:04:58;;;;;;;11.70;3.63;;;10.40;99.90;;;;;;6314928;28;20087;-86
2023/12/17 01:08:00;;;;;;;12.65;3.35;;;10.40;99.90;;;;;;6317818;28;20052;-86
2023/12/17 01:11:01;;;;;;;11.77;3.70;;;10.40;99.90;;;;;;6319230;28;20048;-85
2023/12/17 01:14:04;;;;;;;14.60;3.60;;;10.30;99.90;;;;;;6305329;28;20052;-87
2023/12/17 01:17:09;;;;;;;13.45;3.25;;;10.30;99.90;;;;;;6317022;28;20059;-86
2023/12/17 01:20:10;;;;;;;13.98;3.35;;;10.30;99.90;;;;;;6318923;28;20052;-85
2023/12/17 01:23:12;;;;;;;13.88;3.60;;;10.30;99.90;;;;;;6317125;28;20048;-85
2023/12/17 01:26:13;;;;;;;13.20;3.63;;;10.30;99.90;;;;;;6310460;28;20067;-86
2023/12/17 01:29:16;;;;;;;11.25;3.30;;;10.30;99.90;;;;;;6315626;28;20055;-85
2023/12/17 01:32:18;;;;;;;12.10;3.53;;;10.30;99.90;;;;;;6293888;28;20059;-85
2023/12/17 01:35:19;;;;;;;14.75;3.40;;;10.30;99.90;;;;;;6317170;28;20040;-85
2023/12/17 01:38:21;;;;;;;10.25;3.22;;;10.30;99.90;;;;;;6318447;28;20051;-85
2023/12/17 01:41:23;;;;;;;17.20;3.45;;;10.30;99.90;;;;;;6293255;28;20049;-85
2023/12/17 01:44:25;;;;;;;14.10;2.95;;;10.30;99.90;;;;;;6297963;28;20139;-84
2023/12/17 01:47:26;;;;;;;12.48;3.25;;;10.30;99.90;;;;;;6317773;28;20058;-85
2023/12/17 01:50:28;;;;;;;14.43;3.33;;;10.30;99.90;;;;;;6292639;28;20140;-85
2023/12/17 01:53:29;;;;;;;15.27;3.25;;;10.30;99.90;;;;;;6316651;28;20048;-84
2023/12/17 01:56:31;;;;;;;10.73;3.42;;;10.30;99.90;;;;;;6293756;28;20056;-84
2023/12/17 01:59:33;;;;;;;13.30;3.33;;;10.30;99.90;;;;;;6314145;28;20491;-86
2023/12/17 02:02:34;;;;;;;13.73;3.78;;;10.20;99.90;;;;;;6293932;28;20060;-83
2023/12/17 02:05:36;;;;;;;17.00;3.38;;;10.30;99.90;;;;;;6315881;28;20586;-86
2023/12/17 02:08:37;;;;;;;13.88;3.28;;;10.20;99.90;;;;;;6316784;28;20055;-85
2023/12/17 02:11:39;;;;;;;14.63;3.42;;;10.30;99.90;;;;;;6294229;28;20087;-85
2023/12/17 02:14:41;;;;;;;13.68;3.08;;;10.30;99.90;;;;;;6315336;28;20063;-85
2023/12/17 02:17:42;;;;;;;16.77;3.58;;;10.30;99.90;;;;;;6292285;28;20508;-86
2023/12/17 02:20:44;;;;;;;19.50;3.53;;;10.30;99.90;;;;;;6316587;28;20067;-84
2023/12/17 02:23:46;;;;;;;11.82;3.17;;;10.20;99.90;;;;;;6311891;28;20062;-84
2023/12/17 02:26:48;;;;;;;15.80;3.83;;;10.30;99.90;;;;;;6316328;28;20056;-84
2023/12/17 02:29:49;;;;;;;14.15;3.55;;;10.30;99.90;;;;;;6292856;28;20060;-86
2023/12/17 02:32:51;;;;;;;13.70;3.33;;;10.20;99.90;;;;;;6317150;28;20056;-84
2023/12/17 02:35:53;;;;;;;17.23;3.22;;;10.20;99.90;;;;;;6316434;28;20074;-85
2023/12/17 02:38:55;;;;;;;20.85;3.60;;;10.20;99.90;;;;;;6317528;28;20052;-85
2023/12/17 02:41:58;;;;;;;13.65;3.28;;;10.20;99.90;;;;;;6295185;28;20059;-84
2023/12/17 02:44:59;;;;;;;18.33;3.60;;;10.20;99.90;;;;;;6313611;28;20431;-84
2023/12/17 02:48:01;;;;;;;16.27;3.65;;;10.10;99.90;;;;;;6317579;28;20467;-84
2023/12/17 02:51:03;;;;;;;16.35;2.85;;;10.10;99.90;;;;;;6293400;28;20105;-84
2023/12/17 02:54:04;;;;;;;15.00;3.20;;;10.10;99.90;;;;;;6318419;28;20389;-84
2023/12/17 02:57:06;;;;;;;18.42;3.03;;;10.10;99.90;;;;;;6320608;28;20043;-85
2023/12/17 03:00:08;;;;;;;14.25;3.00;;;10.10;99.90;;;;;;6316676;28;20052;-84
2023/12/17 03:03:09;;;;;;;12.95;2.85;;;10.10;99.90;;;;;;6308831;28;20047;-85
2023/12/17 03:06:11;;;;;;;15.48;3.03;;;10.10;99.90;;;;;;6319812;28;20427;-84
2023/12/17 03:09:13;;;;;;;14.80;2.65;;;10.10;99.90;;;;;;6320584;28;20079;-85
2023/12/17 03:12:15;;;;;;;13.27;2.42;;;10.10;99.90;;;;;;6301322;28;20131;-85
2023/12/17 03:15:16;;;;;;;13.35;2.55;;;10.10;99.90;;;;;;6318065;28;20056;-85
2023/12/17 03:18:18;;;;;;;13.32;2.45;;;10.10;99.90;;;;;;6321838;28;20185;-85
2023/12/17 03:21:20;;;;;;;12.35;2.30;;;10.10;99.90;;;;;;6305653;28;20074;-86
2023/12/17 03:24:22;;;;;;;16.35;3.08;;;10.00;99.90;;;;;;6320747;28;20146;-84
2023/12/17 03:27:24;;;;;;;12.80;2.85;;;10.00;99.90;;;;;;6319993;28;20052;-85
2023/12/17 03:30:26;;;;;;;14.73;2.63;;;9.90;99.90;;;;;;6295198;28;20904;-84
2023/12/17 03:33:28;;;;;;;11.15;2.40;;;9.90;99.90;;;;;;6319559;28;20403;-84
2023/12/17 03:36:30;;;;;;;14.38;2.13;;;9.90;99.90;;;;;;6321310;28;20040;-84
2023/12/17 03:39:31;;;;;;;13.13;2.40;;;9.80;99.90;;;;;;6320154;28;20055;-85
2023/12/17 03:42:33;;;;;;;14.73;2.60;;;9.80;99.90;;;;;;6312375;28;20071;-87
2023/12/17 03:45:35;;;;;;;15.00;2.58;;;9.90;99.90;;;;;;6318454;28;20067;-86
2023/12/17 03:48:37;;;;;;;12.77;2.50;;;9.80;99.90;;;;;;6296771;28;20048;-86
2023/12/17 03:51:39;;;;;;;13.63;2.55;;;9.80;99.90;;;;;;6336389;28;20052;-86
2023/12/17 03:54:40;;;;;;;12.13;2.35;;;9.80;99.90;;;;;;6320629;28;20045;-86
2023/12/17 03:57:42;;;;;;;18.38;2.95;;;9.90;99.90;;;;;;6297881;28;20553;-85
2023/12/17 04:00:43;;;;;;;11.68;2.50;;;9.80;99.90;;;;;;6320026;28;20047;-85
2023/12/17 04:03:45;;;;;;;11.80;2.40;;;9.80;99.90;;;;;;6318386;28;20060;-86
2023/12/17 04:06:47;;;;;;;12.95;2.30;;;9.80;99.90;;;;;;6321334;28;20051;-87
2023/12/17 04:09:49;;;;;;;14.52;2.55;;;9.70;99.90;;;;;;6296743;28;20055;-86
2023/12/17 04:12:50;;;;;;;15.15;2.65;;;9.70;99.90;;;;;;6320584;28;20051;-86
2023/12/17 04:15:52;;;;;;;13.30;2.50;;;9.70;99.90;;;;;;6318942;28;20051;-85
2023/12/17 04:18:53;;;;;;;12.05;2.67;;;9.70;99.90;;;;;;6297022;28;20060;-83
2023/12/17 04:21:55;;;;;;;13.35;2.38;;;9.80;99.90;;;;;;6320854;28;20117;-86
2023/12/17 04:24:57;;;;;;;11.77;2.78;;;9.70;99.90;;;;;;6320265;28;20052;-85
2023/12/17 04:27:59;;;;;;;17.15;3.03;;;9.70;99.90;;;;;;6300031;28;20055;-88
2023/12/17 04:31:00;;;;;;;17.25;3.10;;;9.70;99.90;;;;;;6317263;28;20055;-85
2023/12/17 04:34:02;;;;;;;12.05;2.40;;;9.80;99.90;;;;;;6320791;28;20044;-86
2023/12/17 04:37:04;;;;;;;14.35;2.83;;;9.70;99.90;;;;;;6320518;28;20044;-86
2023/12/17 04:40:06;;;;;;;11.70;2.33;;;9.70;99.90;;;;;;6320983;28;20052;-86
2023/12/17 04:43:08;;;;;;;12.27;2.90;;;9.70;99.90;;;;;;6316882;28;20578;-85
2023/12/17 04:46:10;;;;;;;18.38;2.70;;;9.70;99.90;;;;;;6461839;22;20063;-87
2023/12/17 04:49:11;;;;;;;14.45;3.08;;;9.70;99.90;;;;;;6321877;28;20051;-86
2023/12/17 04:52:13;;;;;;;13.63;2.67;;;9.70;99.90;;;;;;6294461;28;20060;-86
2023/12/17 04:55:15;;;;;;;19.17;3.47;;;9.80;99.90;;;;;;6320308;28;20055;-86
2023/12/17 04:58:16;;;;;;;11.27;2.65;;;9.80;99.90;;;;;;6295028;28;20059;-86
2023/12/17 05:01:18;;;;;;;15.38;2.83;;;9.70;99.90;;;;;;6315935;28;20047;-84
2023/12/17 05:04:20;;;;;;;13.77;2.80;;;9.70;99.90;;;;;;6294807;28;20174;-85
2023/12/17 05:07:22;;;;;;;15.60;2.83;;;9.60;99.90;;;;;;6294719;28;20060;-85
2023/12/17 05:10:23;;;;;;;18.10;2.83;;;9.60;99.90;;;;;;6318701;28;20051;-86
2023/12/17 05:13:25;;;;;;;11.85;2.75;;;9.60;99.90;;;;;;6298341;28;20052;-86
2023/12/17 05:16:27;;;;;;;22.45;3.58;;;9.60;99.90;;;;;;6319933;28;20066;-85
2023/12/17 05:19:28;;;;;;;16.63;3.08;;;9.60;99.90;;;;;;6293631;28;20059;-86
2023/12/17 05:22:30;;;;;;;14.25;3.05;;;9.60;99.90;;;;;;6317355;28;20056;-85
2023/12/17 05:25:32;;;;;;;14.80;3.00;;;9.60;99.90;;;;;;6293784;28;20143;-86
2023/12/17 05:28:33;;;;;;;14.05;3.15;;;9.70;99.90;;;;;;6307096;28;20071;-85
2023/12/17 05:31:35;;;;;;;20.27;3.05;;;9.60;99.90;;;;;;6295034;28;20053;-85
2023/12/17 05:34:37;;;;;;;16.35;3.05;;;9.60;99.90;;;;;;6316031;28;20078;-86
2023/12/17 05:37:39;;;;;;;14.90;2.67;;;9.60;99.90;;;;;;6319357;28;20055;-87
2023/12/17 05:40:41;;;;;;;15.27;3.30;;;9.50;99.90;;;;;;6294350;28;20149;-86
2023/12/17 05:43:43;;;;;;;16.75;3.22;;;9.50;99.90;;;;;;6307563;28;20052;-86
2023/12/17 05:46:45;;;;;;;17.88;3.15;;;9.50;99.90;;;;;;6301882;28;20060;-85
2023/12/17 05:49:46;;;;;;;18.58;3.42;;;9.50;99.90;;;;;;6320937;28;20055;-85
2023/12/17 05:52:48;;;;;;;18.75;3.10;;;9.50;99.90;;;;;;6319982;28;20188;-85
2023/12/17 05:55:51;;;;;;;14.45;3.10;;;9.50;99.90;;;;;;6301675;28;20060;-85
2023/12/17 05:58:52;;;;;;;15.23;3.00;;;9.40;99.90;;;;;;6320121;28;20475;-84
2023/12/17 06:01:54;;;;;;;16.30;3.25;;;9.40;99.90;;;;;;6333678;28;20048;-85
2023/12/17 06:04:56;;;;;;;20.95;3.65;;;9.40;99.90;;;;;;6307324;28;20056;-86
2023/12/17 06:07:58;;;;;;;15.73;3.67;;;9.30;99.90;;;;;;6301561;28;20150;-83
2023/12/17 06:10:59;;;;;;;18.02;3.88;;;9.30;99.90;;;;;;6318606;28;20071;-83
2023/12/17 06:14:01;;;;;;;14.23;3.72;;;9.30;99.90;;;;;;6303493;28;20048;-85
2023/12/17 06:17:03;;;;;;;16.45;3.58;;;9.30;99.90;;;;;;6294220;28;20052;-85
2023/12/17 06:20:04;;;;;;;19.67;4.15;;;9.30;99.90;;;;;;6317049;28;20048;-83
2023/12/17 06:23:06;;;;;;;12.98;2.88;;;9.30;99.90;;;;;;6317748;28;20415;-84
2023/12/17 06:26:07;;;;;;;21.77;3.60;;;9.30;99.90;;;;;;6294764;28;20410;-84
2023/12/17 06:29:13;;;;;;;17.92;3.75;;;9.30;99.90;;;;;;6309000;28;20055;-83
2023/12/17 06:32:15;;;;;;;15.90;3.67;;;9.40;99.90;;;;;;6297888;28;20057;-84
2023/12/17 06:35:17;;;;;;;17.70;3.60;;;9.30;99.90;;;;;;6320113;28;20074;-86
2023/12/17 06:38:19;;;;;;;22.05;4.22;;;9.30;99.90;;;;;;6321706;28;20060;-83
2023/12/17 06:41:20;;;;;;;15.73;3.78;;;9.40;99.90;;;;;;6322546;28;20776;-86
2023/12/17 06:44:22;;;;;;;20.42;3.85;;;9.40;99.90;;;;;;6306415;28;20055;-87
2023/12/17 06:47:23;;;;;;;31.35;4.57;;;9.30;99.90;;;;;;6308442;28;20575;-88
2023/12/17 06:50:29;;;;;;;19.70;3.80;;;9.40;99.90;;;;;;6297788;28;20052;-86
2023/12/17 06:53:31;;;;;;;18.75;3.70;;;9.40;99.90;;;;;;6321331;28;20056;-84
2023/12/17 06:56:32;;;;;;;16.48;3.45;;;9.40;99.90;;;;;;6301414;28;20048;-85
2023/12/17 06:59:34;;;;;;;19.85;4.32;;;9.40;99.90;;;;;;6319442;28;20487;-85
2023/12/17 07:02:36;;;;;;;16.60;4.13;;;9.50;99.90;;;;;;6296727;28;20512;-86
2023/12/17 07:05:38;;;;;;;16.63;4.25;;;9.50;99.90;;;;;;6319345;28;20036;-85
2023/12/17 07:08:41;;;;;;;19.20;3.88;;;9.50;99.90;;;;;;6321632;28;20060;-86
2023/12/17 07:11:43;;;;;;;16.88;4.13;;;9.50;99.90;;;;;;6322884;28;20044;-88
2023/12/17 07:14:45;;;;;;;19.58;4.03;;;9.50;99.90;;;;;;6295273;28;20053;-85
2023/12/17 07:17:46;;;;;;;19.45;4.70;;;9.40;99.90;;;;;;6321082;28;20048;-84
2023/12/17 07:20:50;;;;;;;17.52;4.20;;;9.50;99.90;;;;;;6298089;28;20143;-87
2023/12/17 07:23:52;;;;;;;20.60;4.20;;;9.40;99.90;;;;;;6321091;28;20139;-87
2023/12/17 07:26:53;;;;;;;15.30;4.10;;;9.40;99.90;;;;;;6296678;28;20116;-85
2023/12/17 07:29:55;;;;;;;21.15;4.93;;;9.40;99.90;;;;;;6320511;28;20585;-86
2023/12/17 07:32:57;;;;;;;20.75;4.85;;;9.40;99.90;;;;;;6296142;28;20062;-85
2023/12/17 07:35:59;;;;;;;18.83;4.45;;;9.30;99.90;;;;;;6320264;28;20052;-84
2023/12/17 07:39:00;;;;;;;19.50;3.95;;;9.20;99.90;;;;;;6304279;28;20632;-85
2023/12/17 07:42:02;;;;;;;16.50;4.60;;;9.20;99.90;;;;;;6294553;28;20049;-86
2023/12/17 07:45:04;;;;;;;19.05;4.90;;;9.10;99.90;;;;;;6315552;28;20062;-86
2023/12/17 07:48:07;;;;;;;20.67;4.65;;;9.10;99.90;;;;;;6295652;28;20059;-87
2023/12/17 07:51:09;;;;;;;18.63;5.03;;;9.00;99.90;;;;;;6321546;28;20048;-85
2023/12/17 07:54:10;;;;;;;17.27;5.22;;;9.00;99.90;;;;;;6296627;28;20067;-86
2023/12/17 07:57:12;;;;;;;15.13;4.50;;;9.10;99.90;;;;;;6320871;28;20410;-87
2023/12/17 08:00:14;;;;;;;17.45;5.22;;;9.10;99.90;;;;;;6294062;28;20052;-86
2023/12/17 08:03:15;;;;;;;16.83;4.80;;;9.10;99.90;;;;;;6320929;28;20052;-89
2023/12/17 08:06:17;;;;;;;20.80;5.22;;;9.20;99.90;;;;;;6293881;28;20416;-84
2023/12/17 08:09:19;;;;;;;24.58;6.10;;;9.20;99.90;;;;;;6319210;28;20052;-84
2023/12/17 08:12:21;;;;;;;18.13;5.13;;;9.20;99.90;;;;;;6302828;28;20130;-84
2023/12/17 08:15:23;;;;;;;22.20;4.43;;;9.10;99.90;;;;;;6305516;28;20526;-85
2023/12/17 08:18:24;;;;;;;17.45;6.32;;;9.10;99.90;;;;;;6301390;28;20514;-85
2023/12/17 08:21:26;;;;;;;17.35;5.00;;;9.10;99.90;;;;;;6296279;28;20206;-85
2023/12/17 08:24:28;;;;;;;17.13;4.90;;;9.10;99.90;;;;;;6305874;28;20131;-84
2023/12/17 08:27:30;;;;;;;19.13;5.05;;;9.10;99.90;;;;;;6312374;28;20138;-84
2023/12/17 08:30:31;;;;;;;19.00;5.68;;;9.20;99.90;;;;;;6312998;28;20407;-85
2023/12/17 08:33:34;;;;;;;19.25;5.15;;;9.20;99.90;;;;;;6293625;28;20055;-83
2023/12/17 08:36:36;;;;;;;19.48;5.30;;;9.20;99.90;;;;;;6320139;28;20056;-82
2023/12/17 08:39:38;;;;;;;21.80;5.90;;;9.20;99.90;;;;;;6306409;28;20047;-86
2023/12/17 08:42:40;;;;;;;19.45;5.15;;;9.30;99.90;;;;;;6309650;28;20060;-85
2023/12/17 08:45:45;;;;;;;21.83;5.22;;;9.30;99.90;;;;;;6301014;28;20049;-82
2023/12/17 08:48:46;;;;;;;18.10;4.75;;;9.30;99.90;;;;;;6309276;28;20379;-84
2023/12/17 08:51:49;;;;;;;17.92;5.13;;;9.30;99.90;;;;;;6302801;28;20063;-85
2023/12/17 08:54:51;;;;;;;25.40;5.15;;;9.30;99.90;;;;;;6317516;28;20060;-85
2023/12/17 08:57:53;;;;;;;16.50;5.60;;;9.30;99.90;;;;;;6304244;28;20048;-83
2023/12/17 09:00:54;;;;;;;21.88;5.38;;;9.40;99.90;;;;;;6314242;28;20132;-83
2023/12/17 09:03:56;;;;;;;17.60;4.72;;;9.30;99.90;;;;;;6294455;28;20048;-81
2023/12/17 09:06:58;;;;;;;19.65;4.95;;;9.40;99.90;;;;;;6303210;28;20044;-85
2023/12/17 09:10:00;;;;;;;15.23;4.88;;;9.40;99.90;;;;;;6304092;28;20055;-85
2023/12/17 09:13:02;;;;;;;19.55;4.82;;;9.50;99.90;;;;;;6315049;28;20131;-89
2023/12/17 09:16:04;;;;;;;18.35;4.65;;;9.50;99.90;;;;;;6327616;28;20052;-91
2023/12/17 09:19:05;;;;;;;15.90;5.20;;;9.50;99.90;;;;;;6307239;28;20060;-84
2023/12/17 09:22:07;;;;;;;24.08;4.90;;;9.60;99.90;;;;;;6319918;28;20052;-82
2023/12/17 09:25:09;;;;;;;15.45;4.25;;;9.70;99.90;;;;;;6292492;28;20052;-84
2023/12/17 09:28:11;;;;;;;17.13;4.22;;;9.70;99.90;;;;;;6315637;28;20052;-80
2023/12/17 09:31:13;;;;;;;23.83;5.00;;;9.70;99.90;;;;;;6314961;28;20071;-82
2023/12/17 09:34:14;;;;;;;17.70;4.18;;;9.70;99.90;;;;;;6319316;28;20135;-84
2023/12/17 09:37:17;;;;;;;15.32;3.55;;;9.80;99.90;;;;;;6294580;28;20703;-83
2023/12/17 09:40:18;;;;;;;21.60;4.97;;;9.80;99.90;;;;;;6316479;28;20052;-81
2023/12/17 09:43:24;;;;;;;17.02;4.03;;;9.90;99.90;;;;;;6298271;28;20056;-81
2023/12/17 09:46:26;;;;;;;18.13;3.72;;;10.00;99.90;;;;;;6302848;28;20052;-82
2023/12/17 09:49:27;;;;;;;16.35;3.85;;;10.00;99.90;;;;;;6316508;28;20048;-82
2023/12/17 09:52:29;;;;;;;15.27;4.30;;;10.00;99.90;;;;;;6292156;28;20048;-82
2023/12/17 09:55:31;;;;;;;18.52;4.00;;;10.10;99.90;;;;;;6318159;28;20056;-82
2023/12/17 09:58:32;;;;;;;16.63;3.80;;;10.10;99.90;;;;;;6298970;28;20055;-82
2023/12/17 10:01:34;;;;;;;13.95;3.75;;;10.10;99.90;;;;;;6293691;28;20051;-80
2023/12/17 10:04:36;;;;;;;17.90;4.05;;;10.10;99.90;;;;;;6321117;28;20628;-81
2023/12/17 10:07:37;;;;;;;19.98;4.00;;;10.20;99.90;;;;;;6298514;28;20052;-82
2023/12/17 10:10:40;;;;;;;19.83;3.80;;;10.30;99.90;;;;;;6321749;28;20048;-81
2023/12/17 10:13:42;;;;;;;14.18;3.03;;;10.40;99.90;;;;;;6307357;28;20490;-82
2023/12/17 10:16:43;;;;;;;14.43;3.72;;;10.40;99.90;;;;;;6298770;28;20110;-82
2023/12/17 10:19:45;;;;;;;14.52;3.03;;;10.50;99.90;;;;;;6322699;28;20423;-82
2023/12/17 10:22:47;;;;;;;12.35;2.30;;;10.60;99.90;;;;;;6298619;28;20052;-82
2023/12/17 10:25:48;;;;;;;8.27;2.45;;;10.50;99.90;;;;;;6322286;28;20663;-82
2023/12/17 10:28:50;;;;;;;11.57;2.08;;;10.60;99.90;;;;;;6310494;28;20558;-81
2023/12/17 10:31:52;;;;;;;14.80;2.90;;;10.70;99.90;;;;;;6297350;28;20048;-81
2023/12/17 10:34:53;;;;;;;12.63;3.28;;;10.70;99.90;;;;;;6321459;28;20459;-83
2023/12/17 10:37:56;;;;;;;10.18;2.88;;;10.70;99.90;;;;;;6297155;28;20075;-81
2023/12/17 10:40:57;;;;;;;12.52;2.40;;;10.70;99.90;;;;;;6322074;28;20063;-83
2023/12/17 10:43:59;;;;;;;11.77;2.90;;;10.80;99.90;;;;;;6307939;28;20055;-81
2023/12/17 10:47:01;;;;;;;10.18;2.47;;;10.80;99.90;;;;;;6297453;28;20059;-84
2023/12/17 10:50:03;;;;;;;13.20;2.30;;;10.80;99.90;;;;;;6322100;28;20059;-83
2023/12/17 10:53:05;;;;;;;14.90;2.53;;;10.70;99.90;;;;;;6297426;28;20063;-83
2023/12/17 10:56:06;;;;;;;10.43;2.50;;;10.80;99.90;;;;;;6320111;28;20081;-82
2023/12/17 10:59:08;;;;;;;12.65;2.60;;;10.80;99.90;;;;;;6311232;28;20062;-87
2023/12/17 11:02:10;;;;;;;9.57;2.60;;;10.80;99.90;;;;;;6296973;28;20146;-85
2023/12/17 11:05:11;;;;;;;9.15;2.28;;;10.70;99.90;;;;;;6321821;28;20414;-85
2023/12/17 11:08:13;;;;;;;13.45;3.70;;;10.80;99.90;;;;;;6297606;28;20073;-85
2023/12/17 11:11:15;;;;;;;11.77;2.42;;;11.00;99.90;;;;;;6321724;28;20052;-85
2023/12/17 11:14:16;;;;;;;13.90;2.38;;;10.90;99.90;;;;;;6307449;28;20044;-85
2023/12/17 11:17:18;;;;;;;12.05;2.50;;;10.90;99.90;;;;;;6296690;28;20074;-85
2023/12/17 11:20:20;;;;;;;14.77;2.55;;;11.00;99.90;;;;;;6320432;28;20490;-82
2023/12/17 11:23:21;;;;;;;9.65;2.70;;;11.10;99.90;;;;;;6300801;28;20044;-83
2023/12/17 11:26:23;;;;;;;11.10;2.28;;;11.20;99.90;;;;;;6302563;28;20431;-82
2023/12/17 11:29:25;;;;;;;8.45;2.20;;;11.30;99.90;;;;;;6305698;28;20059;-84
2023/12/17 11:32:27;;;;;;;17.05;2.72;;;11.40;99.90;;;;;;6294755;28;20495;-83
2023/12/17 11:35:29;;;;;;;14.50;2.65;;;11.50;98.10;;;;;;6318872;28;20055;-83
2023/12/17 11:38:30;;;;;;;16.27;2.72;;;12.00;97.50;;;;;;6296211;28;20048;-86
2023/12/17 11:41:32;;;;;;;12.02;2.40;;;12.00;92.20;;;;;;6318972;28;20115;-85
2023/12/17 11:44:34;;;;;;;12.48;2.35;;;12.20;90.20;;;;;;6293795;28;20054;-85
2023/12/17 11:47:35;;;;;;;14.27;2.42;;;12.40;85.70;;;;;;6318286;28;20056;-83
2023/12/17 11:50:37;;;;;;;10.00;2.22;;;12.30;84.80;;;;;;6294371;28;20056;-84
2023/12/17 11:53:38;;;;;;;11.05;2.80;;;12.20;86.60;;;;;;6292459;28;20435;-84
2023/12/17 11:56:40;;;;;;;11.95;2.45;;;12.10;90.00;;;;;;6320065;28;20510;-85
2023/12/17 11:59:42;;;;;;;15.15;2.70;;;12.20;91.60;;;;;;6294698;28;20063;-86
2023/12/17 12:02:43;;;;;;;12.32;2.38;;;12.50;84.70;;;;;;6294211;28;20063;-86
2023/12/17 12:05:45;;;;;;;10.10;2.72;;;12.40;88.40;;;;;;6293652;28;20114;-85
2023/12/17 12:08:48;;;;;;;9.50;2.50;;;12.40;89.50;;;;;;6295104;28;20052;-84
2023/12/17 12:11:50;;;;;;;9.50;2.40;;;12.20;84.00;;;;;;6304213;28;20480;-84
2023/12/17 12:14:52;;;;;;;7.10;2.72;;;12.50;90.90;;;;;;6297029;28;20137;-81
2023/12/17 12:17:54;;;;;;;11.18;2.50;;;12.60;83.50;;;;;;6313105;28;20636;-84
2023/12/17 12:20:55;;;;;;;11.02;2.45;;;13.00;77.40;;;;;;6318174;28;20056;-84
2023/12/17 12:23:57;;;;;;;11.48;2.38;;;12.90;74.40;;;;;;6305523;28;20183;-88
2023/12/17 12:26:59;;;;;;;10.50;2.40;;;12.90;67.10;;;;;;6319092;28;20675;-87
2023/12/17 12:30:01;;;;;;;8.25;2.50;;;12.50;77.50;;;;;;6291442;28;20102;-86
2023/12/17 12:33:02;;;;;;;8.98;2.72;;;12.40;79.00;;;;;;6318393;28;20051;-87
2023/12/17 12:36:05;;;;;;;10.52;2.55;;;12.30;88.30;;;;;;6294511;28;20052;-86
2023/12/17 12:39:07;;;;;;;9.43;2.35;;;12.60;81.10;;;;;;6320083;28;20036;-83
2023/12/17 12:42:08;;;;;;;12.85;2.50;;;12.70;71.60;;;;;;6294279;28;20049;-86
2023/12/17 12:45:10;;;;;;;9.57;2.20;;;12.60;75.10;;;;;;6312849;28;20052;-86
2023/12/17 12:48:12;;;;;;;8.75;2.40;;;12.50;80.10;;;;;;6293732;28;20081;-88
2023/12/17 12:51:14;;;;;;;10.18;2.50;;;12.30;85.80;;;;;;6318549;28;20522;-86
2023/12/17 12:54:16;;;;;;;16.60;2.50;;;12.30;84.90;;;;;;6294546;28;20060;-86
2023/12/17 12:57:18;;;;;;;11.65;2.40;;;12.30;85.60;;;;;;6318224;28;20074;-86
2023/12/17 13:00:20;;;;;;;10.02;2.40;;;12.50;80.40;;;;;;6291944;28;20057;-86
2023/12/17 13:03:22;;;;;;;12.07;2.53;;;12.20;88.30;;;;;;6318603;28;20137;-85
2023/12/17 13:06:27;;;;;;;11.45;3.20;;;11.90;91.60;;;;;;6293757;28;20087;-84
2023/12/17 13:09:29;;;;;;;11.18;3.17;;;11.80;92.70;;;;;;6317053;28;20094;-84
2023/12/17 13:12:31;;;;;;;13.73;3.22;;;11.70;93.80;;;;;;6294164;28;20052;-86
2023/12/17 13:15:33;;;;;;;13.18;3.28;;;11.60;94.00;;;;;;6319272;28;20821;-85
2023/12/17 13:18:36;;;;;;;13.45;3.33;;;11.60;95.50;;;;;;6293900;28;20697;-86
2023/12/17 13:21:37;;;;;;;12.43;2.95;;;11.40;96.40;;;;;;6316409;28;20048;-85
2023/12/17 13:24:39;;;;;;;13.45;3.50;;;11.20;97.10;;;;;;6319583;28;20067;-86
2023/12/17 13:27:41;;;;;;;10.98;3.33;;;11.30;98.60;;;;;;6294702;28;20182;-83
2023/12/17 13:30:42;;;;;;;10.88;3.17;;;11.30;96.80;;;;;;6314458;28;20052;-83
2023/12/17 13:33:44;;;;;;;10.77;2.90;;;11.20;97.00;;;;;;6293420;28;20052;-83
2023/12/17 13:36:46;;;;;;;11.65;3.13;;;11.10;97.90;;;;;;6317639;28;20052;-85
2023/12/17 13:39:48;;;;;;;13.70;3.30;;;11.10;99.20;;;;;;6292814;28;20052;-86
2023/12/17 13:42:50;;;;;;;12.32;3.10;;;11.00;98.20;;;;;;6312220;28;20523;-88
2023/12/17 13:45:52;;;;;;;15.45;3.22;;;11.00;98.50;;;;;;6302848;28;20135;-86
2023/12/17 13:48:54;;;;;;;9.48;3.00;;;10.90;99.10;;;;;;6292536;28;20056;-88
2023/12/17 13:51:56;;;;;;;11.15;3.00;;;11.00;98.90;;;;;;6316914;28;20506;-88
2023/12/17 13:54:58;;;;;;;11.15;2.60;;;11.00;98.90;;;;;;6292854;28;20110;-87
2023/12/17 13:57:59;;;;;;;13.02;3.25;;;11.00;98.40;;;;;;6310779;28;20063;-87
2023/12/17 14:01:01;;;;;;;9.25;3.17;;;10.90;98.10;;;;;;6293244;28;20109;-87
2023/12/17 14:04:03;;;;;;;10.80;3.08;;;10.90;97.90;;;;;;6318315;28;20096;-86
2023/12/17 14:07:05;;;;;;;13.52;3.00;;;11.00;97.20;;;;;;6294541;28;20172;-85
2023/12/17 14:10:07;;;;;;;12.68;3.10;;;10.90;97.40;;;;;;6317799;28;20066;-86
2023/12/17 14:13:10;;;;;;;8.57;2.83;;;10.80;96.60;;;;;;6295645;28;20055;-87
2023/12/17 14:16:20;;;;;;;10.15;3.25;;;10.80;96.80;;;;;;6317317;28;20137;-86
2023/12/17 14:19:22;;;;;;;12.68;3.35;;;10.80;97.20;;;;;;6291608;28;20056;-87
2023/12/17 14:22:24;;;;;;;10.98;3.17;;;10.80;97.80;;;;;;6306706;28;20060;-86
2023/12/17 14:25:26;;;;;;;10.75;3.10;;;10.70;97.30;;;;;;6316156;28;20060;-85
2023/12/17 14:28:30;;;;;;;13.07;3.00;;;10.80;96.90;;;;;;6304693;28;20680;-85
2023/12/17 14:31:33;;;;;;;11.30;3.00;;;10.80;97.30;;;;;;6316952;28;20545;-84
2023/12/17 14:34:36;;;;;;;11.70;3.05;;;10.80;96.30;;;;;;6293298;28;20087;-85
2023/12/17 14:37:38;;;;;;;10.18;3.20;;;10.80;96.70;;;;;;6317499;28;20129;-85
2023/12/17 14:40:40;;;;;;;14.25;3.38;;;10.90;96.30;;;;;;6293367;28;20055;-85
2023/12/17 14:43:41;;;;;;;11.18;3.22;;;10.90;95.60;;;;;;6305504;28;20127;-86
2023/12/17 14:46:43;;;;;;;9.25;2.85;;;10.70;95.40;;;;;;6316860;28;20063;-86
2023/12/17 14:49:45;;;;;;;12.60;3.03;;;10.80;95.10;;;;;;6293899;28;20052;-85
2023/12/17 14:52:46;;;;;;;12.32;3.85;;;10.70;94.80;;;;;;6320977;28;20056;-87
2023/12/17 14:55:48;;;;;;;8.85;3.75;;;10.70;95.20;;;;;;6296784;28;20377;-86
2023/12/17 14:58:51;;;;;;;10.25;3.15;;;10.70;95.10;;;;;;6306765;28;20045;-84
2023/12/17 15:01:54;;;;;;;10.00;3.10;;;10.50;93.50;;;;;;6320232;28;20510;-83
2023/12/17 15:04:56;;;;;;;7.85;3.40;;;10.50;94.80;;;;;;6297677;28;20052;-84
2023/12/17 15:07:57;;;;;;;11.43;3.45;;;10.40;94.80;;;;;;6319993;28;20059;-84
2023/12/17 15:10:59;;;;;;;13.52;3.72;;;10.30;95.50;;;;;;6296427;28;20059;-84
2023/12/17 15:14:01;;;;;;;10.35;3.03;;;10.30;96.30;;;;;;6305257;28;20059;-85
2023/12/17 15:17:02;;;;;;;9.82;3.20;;;10.40;96.50;;;;;;6320914;28;20499;-83
2023/12/17 15:20:04;;;;;;;10.55;3.20;;;10.30;95.80;;;;;;6295662;28;20053;-83
2023/12/17 15:23:06;;;;;;;13.63;3.20;;;10.30;96.10;;;;;;6319590;28;20414;-85
2023/12/17 15:26:08;;;;;;;15.27;3.58;;;10.30;96.20;;;;;;6295306;28;20052;-84
2023/12/17 15:29:10;;;;;;;13.68;3.38;;;10.30;95.60;;;;;;6303431;28;20060;-84
2023/12/17 15:32:11;;;;;;;11.30;3.20;;;10.30;96.00;;;;;;6320689;28;20044;-85
2023/12/17 15:35:13;;;;;;;15.25;3.70;;;10.20;95.50;;;;;;6295267;28;20416;-84
2023/12/17 15:38:15;;;;;;;13.50;3.60;;;10.20;96.20;;;;;;6319306;28;20051;-83